createdAt,value
2022-07-31T00:04:52.847Z,17.15
2022-07-31T00:10:54.807Z,17.36
2022-07-31T00:16:57.493Z,17.27
2022-07-31T00:23:00.013Z,17.38
2022-07-31T00:29:01.992Z,17.44
2022-07-31T00:35:04.569Z,17.44
2022-07-31T00:41:06.926Z,17.39
2022-07-31T00:47:09.164Z,17.41
2022-07-31T00:53:11.202Z,17.47
2022-07-31T00:59:13.193Z,17.50
2022-07-31T01:05:18.960Z,17.43
2022-07-31T01:12:06.083Z,17.40
2022-07-31T01:18:10.599Z,17.34
2022-07-31T01:24:46.258Z,17.38
2022-07-31T01:31:24.161Z,17.39
2022-07-31T01:37:50.699Z,17.32
2022-07-31T01:43:57.068Z,17.27
2022-07-31T01:50:01.364Z,17.22
2022-07-31T01:56:04.497Z,17.19
2022-07-31T02:02:06.859Z,17.16
2022-07-31T02:08:14.986Z,17.06
2022-07-31T02:14:19.529Z,16.88
2022-07-31T02:20:23.570Z,16.73
2022-07-31T02:26:27.614Z,16.59
2022-07-31T02:32:32.088Z,16.55
2022-07-31T02:38:36.155Z,16.45
2022-07-31T02:44:38.668Z,16.33
2022-07-31T02:50:41.837Z,16.22
2022-07-31T02:56:46.341Z,16.17
2022-07-31T03:02:52.391Z,16.11
2022-07-31T03:08:54.401Z,16.06
2022-07-31T03:14:57.758Z,16.11
2022-07-31T03:20:59.858Z,16.06
2022-07-31T03:27:02.143Z,15.98
2022-07-31T03:33:04.284Z,16.05
2022-07-31T03:39:06.332Z,15.93
2022-07-31T03:45:10.922Z,15.88
2022-07-31T03:51:13.786Z,15.78
2022-07-31T03:57:17.631Z,15.72
2022-07-31T04:03:21.448Z,15.72
2022-07-31T04:09:23.558Z,15.69
2022-07-31T04:15:25.719Z,15.66
2022-07-31T04:21:27.874Z,15.61
2022-07-31T04:27:29.900Z,15.67
2022-07-31T04:33:31.947Z,15.91
2022-07-31T04:39:34.672Z,16.15
2022-07-31T04:45:36.726Z,16.42
2022-07-31T04:51:39.092Z,16.52
2022-07-31T04:57:41.074Z,16.70
2022-07-31T05:03:43.028Z,16.73
2022-07-31T05:09:45.032Z,16.78
2022-07-31T05:15:47.033Z,17.16
2022-07-31T05:21:53.636Z,17.14
2022-07-31T05:27:56.624Z,17.12
2022-07-31T05:33:59.221Z,17.26
2022-07-31T05:40:01.599Z,17.58
2022-07-31T05:46:05.774Z,17.57
2022-07-31T05:52:07.778Z,17.81
2022-07-31T05:58:14.788Z,17.90
2022-07-31T06:04:18.513Z,18.20
2022-07-31T06:10:20.733Z,18.70
2022-07-31T06:16:22.727Z,18.93
2022-07-31T06:22:24.718Z,18.93
2022-07-31T06:28:33.826Z,19.10
2022-07-31T06:34:49.043Z,19.59
2022-07-31T06:40:51.563Z,19.78
2022-07-31T06:46:53.586Z,20.21
2022-07-31T06:52:55.664Z,20.68
2022-07-31T06:58:58.023Z,20.76
2022-07-31T07:05:05.811Z,21.17
2022-07-31T07:11:12.144Z,21.33
2022-07-31T07:17:14.496Z,22.07
2022-07-31T07:23:16.717Z,22.60
2022-07-31T07:29:18.757Z,22.98
2022-07-31T07:35:21.969Z,22.92
2022-07-31T07:41:25.652Z,23.18
2022-07-31T07:47:27.645Z,23.46
2022-07-31T07:53:49.711Z,23.67
2022-07-31T07:59:51.795Z,24.01
2022-07-31T08:05:53.779Z,24.47
2022-07-31T08:11:56.130Z,24.63
2022-07-31T08:17:58.362Z,24.82
2022-07-31T08:24:00.592Z,24.95
2022-07-31T08:30:02.823Z,25.44
2022-07-31T08:36:08.969Z,26.15
2022-07-31T08:42:11.091Z,26.49
2022-07-31T08:48:14.564Z,28.08
2022-07-31T08:54:19.024Z,28.22
2022-07-31T09:00:22.746Z,27.79
2022-07-31T09:06:24.913Z,27.80
2022-07-31T09:12:33.498Z,29.34
2022-07-31T09:18:36.373Z,29.61
2022-07-31T09:24:39.845Z,29.69
2022-07-31T09:30:56.148Z,29.46
2022-07-31T09:37:18.601Z,29.29
2022-07-31T09:43:24.577Z,28.36
2022-07-31T09:49:35.254Z,27.67
2022-07-31T09:55:37.321Z,27.68
2022-07-31T10:01:41.292Z,27.35
2022-07-31T10:08:51.671Z,27.05
2022-07-31T10:14:56.203Z,26.82
2022-07-31T10:21:02.133Z,26.36
2022-07-31T10:27:09.112Z,26.55
2022-07-31T10:33:40.691Z,27.64
2022-07-31T10:39:42.066Z,29.66
2022-07-31T10:45:53.447Z,30.04
2022-07-31T10:51:55.643Z,29.62
2022-07-31T10:58:19.806Z,29.11
2022-07-31T11:04:34.056Z,30.17
2022-07-31T11:10:36.228Z,30.63
2022-07-31T11:16:53.251Z,30.26
2022-07-31T11:23:01.224Z,30.27
2022-07-31T11:30:00.380Z,29.46
2022-07-31T11:35:31.517Z,29.96
2022-07-31T11:41:44.004Z,29.61
2022-07-31T11:48:12.565Z,29.84
2022-07-31T11:54:11.045Z,30.65
2022-07-31T12:00:26.835Z,29.67
2022-07-31T12:06:34.867Z,29.65
2022-07-31T12:12:40.902Z,30.04
2022-07-31T12:18:50.691Z,30.38
2022-07-31T12:25:08.594Z,30.06
2022-07-31T12:31:11.042Z,30.63
2022-07-31T12:37:17.810Z,30.51
2022-07-31T12:43:24.712Z,30.14
2022-07-31T12:49:26.699Z,29.87
2022-07-31T12:55:33.264Z,29.14
2022-07-31T13:01:36.713Z,29.17
2022-07-31T13:07:39.063Z,29.06
2022-07-31T13:13:41.143Z,28.91
2022-07-31T13:19:43.271Z,28.99
2022-07-31T13:25:45.234Z,28.66
2022-07-31T13:31:47.261Z,28.80
2022-07-31T13:37:49.271Z,29.10
2022-07-31T13:43:59.606Z,29.08
2022-07-31T13:50:02.760Z,29.10
2022-07-31T13:56:05.306Z,29.47
2022-07-31T14:02:07.754Z,30.03
2022-07-31T14:08:33.130Z,29.82
2022-07-31T14:14:31.928Z,29.67
2022-07-31T14:20:34.879Z,29.30
2022-07-31T14:26:36.881Z,28.69
2022-07-31T14:32:39.382Z,28.41
2022-07-31T14:38:41.391Z,28.41
2022-07-31T14:44:43.456Z,27.98
2022-07-31T14:50:45.428Z,27.95
2022-07-31T14:57:01.210Z,27.84
2022-07-31T15:03:03.890Z,27.71
2022-07-31T15:09:06.351Z,27.50
2022-07-31T15:15:09.209Z,27.37
2022-07-31T15:21:17.335Z,27.43
2022-07-31T15:27:21.979Z,27.39
2022-07-31T15:33:24.724Z,27.14
2022-07-31T15:39:26.714Z,26.73
2022-07-31T15:45:28.842Z,26.36
2022-07-31T15:51:30.812Z,25.74
2022-07-31T15:57:33.271Z,25.49
2022-07-31T16:03:51.159Z,25.26
2022-07-31T16:10:03.472Z,24.91
2022-07-31T16:16:17.552Z,24.69
2022-07-31T16:22:19.539Z,24.37
2022-07-31T16:28:21.959Z,24.23
2022-07-31T16:34:24.647Z,24.09
2022-07-31T16:40:31.032Z,23.96
2022-07-31T16:46:33.726Z,23.83
2022-07-31T16:52:35.902Z,23.89
2022-07-31T16:58:38.148Z,23.71
2022-07-31T17:04:40.187Z,23.78
2022-07-31T17:10:42.240Z,23.90
2022-07-31T17:16:47.951Z,23.67
2022-07-31T17:22:54.544Z,23.82
2022-07-31T17:28:57.828Z,23.80
2022-07-31T17:34:59.910Z,23.96
2022-07-31T17:41:03.226Z,26.30
2022-07-31T17:47:07.830Z,26.71
2022-07-31T17:53:10.272Z,27.10
2022-07-31T17:59:16.149Z,27.79
2022-07-31T18:05:18.244Z,27.85
2022-07-31T18:11:21.507Z,27.24
2022-07-31T18:17:23.625Z,26.12
2022-07-31T18:23:29.433Z,25.01
2022-07-31T18:29:37.595Z,24.35
2022-07-31T18:35:41.151Z,23.62
2022-07-31T18:41:48.250Z,23.32
2022-07-31T18:47:51.344Z,22.87
2022-07-31T18:53:54.357Z,22.51
2022-07-31T18:59:56.880Z,22.39
2022-07-31T19:05:59.018Z,22.13
2022-07-31T19:12:06.203Z,21.80
2022-07-31T19:18:10.090Z,21.80
2022-07-31T19:24:15.454Z,21.60
2022-07-31T19:30:17.438Z,21.57
2022-07-31T19:36:19.424Z,21.40
2022-07-31T19:42:21.514Z,21.45
2022-07-31T19:48:23.651Z,21.40
2022-07-31T19:54:25.766Z,21.35
2022-07-31T20:00:27.827Z,21.31
2022-07-31T20:06:29.850Z,21.28
2022-07-31T20:12:31.881Z,21.12
2022-07-31T20:18:34.007Z,21.00
2022-07-31T20:24:36.044Z,21.17
2022-07-31T20:30:38.003Z,20.95
2022-07-31T20:36:40.677Z,20.94
2022-07-31T20:42:42.625Z,20.81
2022-07-31T20:48:45.405Z,20.94
2022-07-31T20:54:47.510Z,20.80
2022-07-31T21:00:51.915Z,20.90
2022-07-31T21:06:54.075Z,21.04
2022-07-31T21:12:56.170Z,21.21
2022-07-31T21:18:58.195Z,20.97
2022-07-31T21:25:02.046Z,21.00
2022-07-31T21:31:05.443Z,20.97
2022-07-31T21:37:08.023Z,20.72
2022-07-31T21:43:10.894Z,20.85
2022-07-31T21:49:20.314Z,20.70
2022-07-31T21:55:22.372Z,20.67
2022-07-31T22:01:24.530Z,20.66
2022-07-31T22:07:32.572Z,20.67
2022-07-31T22:13:34.621Z,20.65
2022-07-31T22:19:37.053Z,20.70
2022-07-31T22:25:48.920Z,20.56
2022-07-31T22:31:54.085Z,20.33
2022-07-31T22:37:57.050Z,20.34
2022-07-31T22:44:13.357Z,20.18
2022-07-31T22:50:16.560Z,20.23
2022-07-31T22:56:19.195Z,20.40
2022-07-31T23:02:21.464Z,20.24
2022-07-31T23:08:23.570Z,20.25
2022-07-31T23:14:25.962Z,20.30
2022-07-31T23:20:28.126Z,20.24
2022-07-31T23:26:30.196Z,20.17
2022-07-31T23:32:32.224Z,20.46
2022-07-31T23:38:34.217Z,20.00
2022-07-31T23:44:40.044Z,20.02
2022-07-31T23:50:43.350Z,20.25
2022-07-31T23:56:45.403Z,20.11
